Time;durP1;ratioP1;P1;durP2;ratioP2;P2;SDS_P1;SDS_P2;PMS_P1;PMS_P2;Temp;Humidity;BMP_temperature;BMP_pressure;BME280_temperature;BME280_humidity;BME280_pressure;Samples;Min_cycle;Max_cycle;Signal;HPM_P1;HPM_P2
2024/02/03 00:00:36;;;;;;;6.10;5.00;;;;;;;7.94;69.31;101816.00;3147672;23;20027;-78
2024/02/03 00:01:49;;;;;;;6.65;4.97;;;;;;;7.93;69.37;101824.66;3146785;23;20032;-78
2024/02/03 00:03:04;;;;;;;8.48;5.40;;;;;;;7.93;69.37;101818.59;3145374;22;20026;-77
2024/02/03 00:04:17;;;;;;;8.57;5.15;;;;;;;7.93;69.59;101818.59;3146078;23;20020;-78
2024/02/03 00:05:32;;;;;;;6.28;4.55;;;;;;;7.92;69.87;101822.00;3147308;23;20047;-78
2024/02/03 00:06:45;;;;;;;5.13;4.55;;;;;;;7.92;70.06;101829.81;3146922;22;20027;-78
2024/02/03 00:07:59;;;;;;;5.95;5.35;;;;;;;7.91;70.28;101820.28;3152865;23;20024;-78
2024/02/03 00:09:13;;;;;;;6.63;5.80;;;;;;;7.90;70.29;101818.50;3146793;23;20031;-78
2024/02/03 00:10:28;;;;;;;10.02;5.93;;;;;;;7.90;70.22;101816.81;3147428;23;20094;-78
2024/02/03 00:11:45;;;;;;;6.05;4.97;;;;;;;7.90;70.36;101813.28;3146547;22;20024;-78
2024/02/03 00:13:00;;;;;;;6.57;5.32;;;;;;;7.87;70.57;101821.91;3146630;23;20031;-78
2024/02/03 00:14:13;;;;;;;6.35;5.13;;;;;;;7.88;70.65;101810.69;3146770;23;20062;-78
2024/02/03 00:15:29;;;;;;;5.57;4.90;;;;;;;7.86;70.64;101808.03;3148872;22;20020;-78
2024/02/03 00:16:43;;;;;;;5.22;4.70;;;;;;;7.86;70.83;101804.56;3145872;23;20016;-78
2024/02/03 00:17:58;;;;;;;9.35;5.93;;;;;;;7.86;70.43;101807.19;3146092;23;20024;-78
2024/02/03 00:19:11;;;;;;;5.68;5.05;;;;;;;7.87;70.67;101814.13;3141967;22;20020;-78
2024/02/03 00:20:26;;;;;;;6.88;6.05;;;;;;;7.86;71.12;101808.03;3144586;23;20020;-79
2024/02/03 00:21:39;;;;;;;9.48;5.55;;;;;;;7.86;70.96;101801.97;3144164;23;20020;-78
2024/02/03 00:22:53;;;;;;;6.72;5.55;;;;;;;7.87;71.13;101806.31;3147546;22;20020;-79
2024/02/03 00:24:07;;;;;;;6.13;5.53;;;;;;;7.86;70.95;101809.78;3143435;23;20031;-77
2024/02/03 00:25:22;;;;;;;8.00;5.22;;;;;;;7.88;70.89;101804.63;3143648;23;20067;-78
2024/02/03 00:26:35;;;;;;;8.25;5.45;;;;;;;7.88;70.78;101800.28;3144593;23;20347;-78
2024/02/03 00:27:50;;;;;;;6.50;5.57;;;;;;;7.88;70.81;101809.81;3144574;22;20024;-78
2024/02/03 00:29:03;;;;;;;6.25;5.38;;;;;;;7.87;70.98;101803.72;3145057;23;20035;-78
2024/02/03 00:30:18;;;;;;;10.95;6.00;;;;;;;7.88;71.09;101802.88;3145054;23;20026;-77
2024/02/03 00:31:33;;;;;;;6.60;5.68;;;;;;;7.88;71.28;101804.63;3144330;22;20355;-78
2024/02/03 00:32:47;;;;;;;6.45;5.13;;;;;;;7.86;71.13;101801.97;3145598;23;20758;-78
2024/02/03 00:34:01;;;;;;;6.05;5.22;;;;;;;7.85;71.08;101806.31;3150863;23;20020;-78
2024/02/03 00:35:16;;;;;;;5.40;4.88;;;;;;;7.85;71.23;101806.31;3144975;22;20362;-78
2024/02/03 00:36:29;;;;;;;7.68;6.88;;;;;;;7.83;71.40;101800.19;3145500;23;20054;-78
2024/02/03 00:37:43;;;;;;;9.20;7.05;;;;;;;7.82;71.26;101798.44;3145260;23;20077;-78
2024/02/03 00:38:58;;;;;;;7.53;6.25;;;;;;;7.82;71.18;101805.34;3144539;22;20028;-78
2024/02/03 00:40:13;;;;;;;10.70;7.10;;;;;;;7.82;71.50;101805.34;3145471;23;20024;-78
2024/02/03 00:41:26;;;;;;;8.23;6.30;;;;;;;7.79;71.71;101806.16;3145656;23;20024;-77
2024/02/03 00:42:42;;;;;;;7.05;6.28;;;;;;;7.79;71.50;101803.56;3144748;22;20028;-77
2024/02/03 00:43:56;;;;;;;7.10;6.13;;;;;;;7.78;71.66;101800.94;3144767;23;20024;-77
2024/02/03 00:45:10;;;;;;;7.60;5.43;;;;;;;7.76;71.65;101795.69;3145452;23;20340;-77
2024/02/03 00:46:24;;;;;;;6.95;6.18;;;;;;;7.75;71.79;101804.34;3145335;23;20490;-78
2024/02/03 00:47:39;;;;;;;7.35;5.60;;;;;;;7.73;71.95;101794.78;3144835;22;20051;-78
2024/02/03 00:48:53;;;;;;;7.63;5.60;;;;;;;7.72;71.91;101798.19;3144694;23;20040;-78
2024/02/03 00:50:14;;;;;;;8.82;6.93;;;;;;;7.69;72.01;101800.72;3144780;23;20027;-78
2024/02/03 00:51:27;;;;;;;9.25;5.82;;;;;;;7.68;72.09;101791.19;3146301;22;20359;-77
2024/02/03 00:52:42;;;;;;;8.30;5.20;;;;;;;7.65;72.05;101800.66;3146604;22;20020;-79
2024/02/03 00:53:55;;;;;;;8.23;6.70;;;;;;;7.66;72.05;101798.94;3145164;23;20024;-78
2024/02/03 00:55:10;;;;;;;7.68;5.65;;;;;;;7.65;72.22;101805.88;3144783;22;20402;-78
2024/02/03 00:56:24;;;;;;;6.32;5.47;;;;;;;7.65;72.02;101805.88;3144819;23;20027;-78
2024/02/03 00:57:38;;;;;;;6.80;5.78;;;;;;;7.66;72.24;101804.13;3145070;23;20323;-78
2024/02/03 00:58:51;;;;;;;8.95;6.45;;;;;;;7.66;72.27;101796.34;3149302;22;20024;-79
2024/02/03 01:00:09;;;;;;;7.47;6.63;;;;;;;7.68;72.52;101801.59;3147154;23;20020;-78
2024/02/03 01:01:22;;;;;;;6.90;5.97;;;;;;;7.68;72.21;101806.78;3144300;23;20027;-78
2024/02/03 01:02:37;;;;;;;6.22;5.57;;;;;;;7.68;72.54;101804.19;3144023;23;20020;-78
2024/02/03 01:03:52;;;;;;;9.60;5.88;;;;;;;7.67;72.33;101800.72;3143983;23;20024;-78
2024/02/03 01:05:06;;;;;;;13.35;5.93;;;;;;;7.68;72.17;101807.66;3148778;22;20023;-78
2024/02/03 01:06:20;;;;;;;7.88;6.40;;;;;;;7.68;72.45;101805.06;3159710;22;20477;-78
2024/02/03 01:07:35;;;;;;;9.63;6.10;;;;;;;7.68;72.56;101794.66;3159283;22;20016;-78
2024/02/03 01:08:48;;;;;;;6.25;5.65;;;;;;;7.69;72.64;101792.94;3159529;22;20020;-78
2024/02/03 01:10:03;;;;;;;9.05;6.00;;;;;;;7.68;72.57;101797.25;3159803;22;20031;-79
2024/02/03 01:11:16;;;;;;;7.78;5.80;;;;;;;7.68;72.76;101796.38;3158984;22;20070;-79
2024/02/03 01:12:31;;;;;;;6.95;5.38;;;;;;;7.68;72.66;101789.47;3159754;22;20020;-78
2024/02/03 01:13:45;;;;;;;10.02;5.82;;;;;;;7.69;72.68;101790.34;3159639;22;20031;-78
2024/02/03 01:14:59;;;;;;;8.63;6.22;;;;;;;7.69;72.83;101799.00;3152222;22;20027;-78
2024/02/03 01:16:13;;;;;;;5.82;5.22;;;;;;;7.70;72.70;101794.72;3144068;23;20367;-78
2024/02/03 01:17:27;;;;;;;8.10;6.93;;;;;;;7.69;72.82;101799.00;3143896;23;20024;-78
2024/02/03 01:18:41;;;;;;;7.28;6.40;;;;;;;7.70;72.82;101799.91;3143033;22;20024;-78
2024/02/03 01:19:56;;;;;;;6.53;5.68;;;;;;;7.71;73.06;101791.25;3143970;23;20019;-78
2024/02/03 01:21:15;;;;;;;8.77;5.93;;;;;;;7.71;73.11;101796.44;3144022;23;20020;-78
2024/02/03 01:22:29;;;;;;;9.82;6.45;;;;;;;7.71;73.00;101799.03;3144230;23;20411;-77
2024/02/03 01:23:43;;;;;;;7.53;6.45;;;;;;;7.72;73.18;101800.78;3143272;22;20024;-77
2024/02/03 01:24:57;;;;;;;6.78;5.25;;;;;;;7.72;73.31;101800.78;3143877;22;20359;-77
2024/02/03 01:26:11;;;;;;;7.15;6.40;;;;;;;7.73;73.23;101794.78;3144181;23;20024;-77
2024/02/03 01:27:25;;;;;;;7.13;6.43;;;;;;;7.73;73.58;101795.63;3143463;22;20019;-77
2024/02/03 01:28:39;;;;;;;7.43;6.70;;;;;;;7.75;73.46;101782.69;3144319;23;20019;-77
2024/02/03 01:29:55;;;;;;;7.45;6.75;;;;;;;7.74;73.53;101779.19;3144053;23;20526;-77
2024/02/03 01:31:09;;;;;;;6.20;5.38;;;;;;;7.75;73.77;101782.69;3143589;22;20027;-77
2024/02/03 01:32:23;;;;;;;7.50;5.85;;;;;;;7.75;73.94;101782.69;3144410;23;20031;-77
2024/02/03 01:33:37;;;;;;;9.05;6.30;;;;;;;7.74;73.86;101779.19;3144076;23;20455;-77
2024/02/03 01:34:51;;;;;;;6.80;6.10;;;;;;;7.73;73.99;101774.84;3143067;22;20026;-77
2024/02/03 01:36:08;;;;;;;7.93;5.85;;;;;;;7.73;73.88;101772.25;3143097;23;20031;-77
2024/02/03 01:37:22;;;;;;;8.73;6.00;;;;;;;7.73;73.84;101780.03;3143868;23;20091;-77
2024/02/03 01:38:35;;;;;;;9.18;6.05;;;;;;;7.71;73.87;101771.34;3143488;23;20020;-77
2024/02/03 01:39:50;;;;;;;7.15;5.90;;;;;;;7.70;73.88;101764.41;3143260;23;20026;-77
2024/02/03 01:41:04;;;;;;;6.70;5.80;;;;;;;7.69;73.97;101770.41;3143919;23;20024;-77
2024/02/03 01:42:18;;;;;;;6.22;5.63;;;;;;;7.67;74.12;101769.53;3143775;23;20346;-77
2024/02/03 01:43:31;;;;;;;7.05;6.05;;;;;;;7.68;73.97;101778.19;3143298;22;20020;-77
2024/02/03 01:44:46;;;;;;;6.90;6.18;;;;;;;7.68;74.04;101775.59;3143769;22;20030;-77
2024/02/03 01:45:59;;;;;;;6.85;5.60;;;;;;;7.65;74.22;101776.41;3144139;23;20024;-77
2024/02/03 01:47:14;;;;;;;8.45;5.93;;;;;;;7.66;74.33;101778.16;3143476;22;20018;-77
2024/02/03 01:48:27;;;;;;;9.23;6.13;;;;;;;7.66;74.39;101785.94;3143819;23;20024;-77
2024/02/03 01:49:42;;;;;;;7.07;5.80;;;;;;;7.67;74.17;101779.03;3143778;23;20020;-77
2024/02/03 01:50:56;;;;;;;7.80;7.00;;;;;;;7.66;74.22;101783.34;3143471;22;20024;-77
2024/02/03 01:52:13;;;;;;;8.52;6.63;;;;;;;7.68;74.34;101775.59;3143270;23;20031;-77
2024/02/03 01:53:27;;;;;;;9.25;6.55;;;;;;;7.68;74.36;101779.06;3143670;23;20034;-77
2024/02/03 01:54:43;;;;;;;7.25;6.45;;;;;;;7.68;74.61;101781.66;3143236;22;20086;-77
2024/02/03 01:55:57;;;;;;;7.80;6.32;;;;;;;7.67;74.53;101782.53;3143952;23;20058;-77
2024/02/03 01:57:11;;;;;;;11.23;6.00;;;;;;;7.69;74.66;101778.22;3144213;23;20021;-77
2024/02/03 01:58:25;;;;;;;6.97;6.28;;;;;;;7.69;74.70;101783.41;3143951;23;20028;-77
2024/02/03 01:59:40;;;;;;;8.35;6.13;;;;;;;7.70;74.55;101784.31;3143394;22;20092;-77
2024/02/03 02:00:55;;;;;;;8.00;6.20;;;;;;;7.69;74.72;101778.22;3143769;23;20024;-77
2024/02/03 02:02:09;;;;;;;9.63;5.82;;;;;;;7.70;74.69;101769.59;3143927;23;20024;-77
2024/02/03 02:03:22;;;;;;;8.35;5.35;;;;;;;7.71;74.67;101773.06;3143105;22;20031;-77
2024/02/03 02:04:37;;;;;;;8.63;7.20;;;;;;;7.72;74.67;101772.22;3143415;22;20030;-77
2024/02/03 02:05:50;;;;;;;6.68;5.43;;;;;;;7.72;74.92;101767.00;3143952;23;20535;-77
2024/02/03 02:07:05;;;;;;;6.75;5.78;;;;;;;7.72;74.79;101769.59;3143165;22;20016;-77
2024/02/03 02:08:30;;;;;;;9.27;6.85;;;;;;;7.73;75.10;101771.38;3143969;23;20024;-77
2024/02/03 02:09:45;;;;;;;7.32;6.13;;;;;;;7.72;74.72;101772.22;3143789;23;20016;-77
2024/02/03 02:10:59;;;;;;;7.07;6.35;;;;;;;7.72;74.84;101769.59;3143006;22;20674;-77
2024/02/03 02:12:13;;;;;;;7.82;5.50;;;;;;;7.71;74.75;101770.47;3144312;23;20028;-77
2024/02/03 02:13:26;;;;;;;7.85;6.35;;;;;;;7.70;74.79;101777.38;3144032;23;20027;-77
2024/02/03 02:14:41;;;;;;;8.68;6.45;;;;;;;7.69;74.77;101766.94;3143317;22;20024;-77
2024/02/03 02:15:54;;;;;;;6.85;5.70;;;;;;;7.67;74.54;101772.13;3143770;23;20496;-77
2024/02/03 02:17:09;;;;;;;6.65;5.80;;;;;;;7.65;74.70;101774.69;3143770;23;20060;-77
2024/02/03 02:18:26;;;;;;;7.50;6.57;;;;;;;7.64;74.57;101770.34;3144170;23;20035;-77
2024/02/03 02:19:40;;;;;;;7.25;6.05;;;;;;;7.63;74.85;101767.69;3143225;22;20063;-77
2024/02/03 02:20:55;;;;;;;10.00;7.07;;;;;;;7.61;74.83;101764.19;3149123;23;20027;-77
2024/02/03 02:22:09;;;;;;;8.82;6.22;;;;;;;7.61;74.77;101770.25;3143434;23;20020;-77
2024/02/03 02:23:23;;;;;;;8.52;5.88;;;;;;;7.60;74.93;101773.72;3143058;22;20024;-77
2024/02/03 02:24:37;;;;;;;7.15;5.72;;;;;;;7.61;74.90;101766.78;3143545;22;20016;-77
2024/02/03 02:25:51;;;;;;;5.88;5.20;;;;;;;7.62;75.12;101772.03;3143674;23;20024;-77
2024/02/03 02:27:05;;;;;;;7.47;5.82;;;;;;;7.63;74.96;101767.69;3143004;22;20489;-77
2024/02/03 02:28:19;;;;;;;7.05;5.85;;;;;;;7.64;74.90;101774.63;3143664;23;20452;-77
2024/02/03 02:29:34;;;;;;;7.82;6.45;;;;;;;7.65;75.34;101768.63;3142966;23;20024;-77
2024/02/03 02:30:47;;;;;;;9.73;6.13;;;;;;;7.66;75.07;101772.97;3143310;22;20106;-77
2024/02/03 02:32:02;;;;;;;5.80;5.20;;;;;;;7.69;75.30;101779.94;3144152;23;20031;-78
2024/02/03 02:33:15;;;;;;;6.68;5.47;;;;;;;7.69;75.35;101778.22;3144070;23;20031;-78
2024/02/03 02:34:29;;;;;;;6.47;5.25;;;;;;;7.71;75.49;101771.34;3143806;22;20020;-77
2024/02/03 02:35:44;;;;;;;6.60;5.18;;;;;;;7.72;75.45;101772.22;3142979;22;20028;-77
2024/02/03 02:37:00;;;;;;;5.45;4.72;;;;;;;7.72;75.46;101772.22;3143561;23;20024;-77
2024/02/03 02:38:14;;;;;;;7.28;6.20;;;;;;;7.75;75.62;101772.28;3143577;23;20024;-77
2024/02/03 02:39:28;;;;;;;6.13;5.00;;;;;;;7.75;75.61;101770.56;3142860;22;20016;-77
2024/02/03 02:40:41;;;;;;;5.00;4.40;;;;;;;7.75;75.57;101764.50;3143510;23;20024;-77
2024/02/03 02:41:56;;;;;;;6.35;5.07;;;;;;;7.75;75.49;101762.78;3143896;23;20020;-77
2024/02/03 02:43:09;;;;;;;4.88;4.22;;;;;;;7.76;75.83;101758.44;3143322;22;20020;-77
2024/02/03 02:44:24;;;;;;;6.25;5.05;;;;;;;7.77;75.49;101766.28;3143337;23;20362;-77
2024/02/03 02:45:37;;;;;;;6.78;4.93;;;;;;;7.78;75.79;101762.84;3143872;22;20020;-77
2024/02/03 02:46:51;;;;;;;8.43;5.72;;;;;;;7.77;75.60;101761.09;3142826;22;20020;-77
2024/02/03 02:48:06;;;;;;;6.15;5.07;;;;;;;7.77;75.71;101758.50;3143745;23;20016;-77
2024/02/03 02:49:20;;;;;;;5.47;4.90;;;;;;;7.76;75.64;101772.31;3143432;23;20020;-77
2024/02/03 02:50:34;;;;;;;6.50;5.28;;;;;;;7.77;75.65;101776.69;3143555;23;20455;-77
2024/02/03 02:51:48;;;;;;;7.85;5.40;;;;;;;7.77;75.85;101763.69;3143533;22;20026;-77
2024/02/03 02:53:03;;;;;;;5.22;4.03;;;;;;;7.79;75.58;101767.16;3143872;23;20024;-77
2024/02/03 02:54:18;;;;;;;5.38;4.70;;;;;;;7.78;75.74;101770.63;3143370;23;20079;-77
2024/02/03 02:55:31;;;;;;;5.93;4.75;;;;;;;7.79;75.88;101774.97;3143028;22;20471;-77
2024/02/03 02:56:46;;;;;;;6.82;5.43;;;;;;;7.78;75.75;101762.84;3144035;23;20083;-78
2024/02/03 02:57:59;;;;;;;5.82;5.13;;;;;;;7.78;75.73;101761.97;3143466;23;20022;-78
2024/02/03 02:59:13;;;;;;;8.25;5.28;;;;;;;7.78;75.69;101768.03;3142946;22;20470;-77
2024/02/03 03:00:27;;;;;;;6.30;5.47;;;;;;;7.79;75.77;101767.16;3143004;23;20020;-77
2024/02/03 03:01:42;;;;;;;9.02;5.68;;;;;;;7.80;75.75;101768.06;3143715;23;20096;-77
2024/02/03 03:02:55;;;;;;;6.07;4.78;;;;;;;7.79;76.07;101769.78;3143236;22;20031;-77
2024/02/03 03:04:09;;;;;;;6.25;4.75;;;;;;;7.79;75.81;101769.78;3143665;23;20047;-77
2024/02/03 03:05:23;;;;;;;7.35;5.07;;;;;;;7.78;75.88;101767.16;3143262;22;20035;-77
2024/02/03 03:06:38;;;;;;;5.53;4.75;;;;;;;7.78;75.89;101756.75;3142457;22;20023;-77
2024/02/03 03:07:51;;;;;;;7.07;6.38;;;;;;;7.76;76.00;101761.91;3143855;23;20020;-77
2024/02/03 03:09:07;;;;;;;6.55;5.38;;;;;;;7.75;75.84;101762.78;3143540;23;20038;-77
2024/02/03 03:10:20;;;;;;;9.32;4.90;;;;;;;7.74;75.93;101758.41;3144129;23;20466;-77
2024/02/03 03:11:35;;;;;;;6.00;5.28;;;;;;;7.75;76.00;101756.72;3143210;22;20035;-77
2024/02/03 03:12:49;;;;;;;8.25;6.07;;;;;;;7.73;76.15;101772.25;3143999;23;20024;-77
2024/02/03 03:14:03;;;;;;;6.07;5.47;;;;;;;7.73;76.08;101759.25;3143832;23;20355;-77
2024/02/03 03:15:17;;;;;;;7.00;5.47;;;;;;;7.72;75.93;101767.91;3142865;22;20016;-77
2024/02/03 03:16:32;;;;;;;7.00;6.30;;;;;;;7.71;76.10;101762.66;3143933;23;20020;-77
2024/02/03 03:17:45;;;;;;;5.53;4.72;;;;;;;7.70;76.00;101754.00;3143750;23;20016;-77
2024/02/03 03:19:00;;;;;;;5.45;4.90;;;;;;;7.70;76.03;101767.00;3142711;22;20023;-77
2024/02/03 03:20:13;;;;;;;6.18;5.55;;;;;;;7.68;75.92;101760.00;3143568;23;20134;-77
2024/02/03 03:21:27;;;;;;;7.80;5.80;;;;;;;7.68;75.98;101763.47;3143519;23;20024;-77
2024/02/03 03:22:41;;;;;;;10.07;6.80;;;;;;;7.67;75.83;101761.75;3143077;22;20031;-77
2024/02/03 03:23:55;;;;;;;7.18;5.13;;;;;;;7.65;75.88;101750.44;3143986;23;20355;-78
2024/02/03 03:25:11;;;;;;;7.55;5.55;;;;;;;7.64;75.81;101761.66;3143864;22;20031;-77
2024/02/03 03:26:25;;;;;;;7.32;5.82;;;;;;;7.61;75.72;101759.88;3142766;23;20028;-77
2024/02/03 03:27:38;;;;;;;8.75;5.88;;;;;;;7.61;76.00;101759.00;3143033;22;20023;-77
2024/02/03 03:28:53;;;;;;;12.40;6.25;;;;;;;7.59;75.88;101758.06;3142824;23;20494;-77
2024/02/03 03:30:09;;;;;;;7.65;5.78;;;;;;;7.58;75.71;101758.94;3143377;23;20477;-77
2024/02/03 03:31:23;;;;;;;6.15;4.93;;;;;;;7.56;75.82;101758.91;3142571;22;20087;-77
2024/02/03 03:32:36;;;;;;;7.70;5.90;;;;;;;7.56;75.92;101758.03;3143644;23;20020;-78
2024/02/03 03:33:51;;;;;;;7.32;5.97;;;;;;;7.55;75.82;101753.69;3143577;23;20020;-77
2024/02/03 03:35:05;;;;;;;7.25;6.55;;;;;;;7.55;75.97;101748.47;3142790;22;20016;-77
2024/02/03 03:36:20;;;;;;;7.57;5.70;;;;;;;7.53;75.82;101748.44;3143343;23;20024;-77
2024/02/03 03:37:33;;;;;;;8.40;6.47;;;;;;;7.53;75.93;101763.16;3143519;23;20020;-77
2024/02/03 03:38:47;;;;;;;6.85;5.57;;;;;;;7.52;75.60;101762.28;3142332;22;20481;-77
2024/02/03 03:40:01;;;;;;;6.60;5.93;;;;;;;7.50;75.65;101760.50;3143605;23;20024;-77
2024/02/03 03:41:17;;;;;;;7.63;6.03;;;;;;;7.48;75.46;101765.63;3143407;23;20042;-77
2024/02/03 03:42:30;;;;;;;6.07;5.10;;;;;;;7.48;75.69;101764.78;3143525;23;20024;-77
2024/02/03 03:43:45;;;;;;;6.20;4.90;;;;;;;7.47;75.47;101778.63;3142704;22;20021;-77
2024/02/03 03:44:59;;;;;;;6.57;5.90;;;;;;;7.45;75.52;101767.31;3142879;22;20027;-77
2024/02/03 03:46:13;;;;;;;9.60;6.28;;;;;;;7.43;75.49;101775.97;3143001;23;20490;-77
2024/02/03 03:47:27;;;;;;;9.20;6.15;;;;;;;7.43;75.57;101775.97;3142744;22;20020;-77
2024/02/03 03:48:42;;;;;;;7.80;6.45;;;;;;;7.41;75.22;101766.38;3143473;23;20541;-77
2024/02/03 03:49:55;;;;;;;11.77;8.20;;;;;;;7.41;75.26;101775.03;3143579;23;20031;-77
2024/02/03 03:51:10;;;;;;;9.63;7.05;;;;;;;7.41;75.29;101768.97;3142778;22;20363;-77
2024/02/03 03:52:23;;;;;;;9.18;6.35;;;;;;;7.40;75.16;101767.19;3143550;23;20032;-77
2024/02/03 03:53:37;;;;;;;7.38;6.07;;;;;;;7.38;75.30;101764.59;3143317;23;20355;-77
2024/02/03 03:54:51;;;;;;;10.98;6.32;;;;;;;7.37;75.18;101768.00;3142639;22;20439;-77
2024/02/03 03:56:06;;;;;;;8.15;6.50;;;;;;;7.37;75.16;101768.00;3143357;23;20020;-77
2024/02/03 03:57:21;;;;;;;8.65;6.22;;;;;;;7.36;75.22;101776.66;3143763;23;20063;-77
2024/02/03 03:58:35;;;;;;;8.27;6.30;;;;;;;7.36;75.11;101773.19;3143341;23;20073;-78
2024/02/03 03:59:49;;;;;;;7.28;6.00;;;;;;;7.36;75.34;101776.66;3142486;22;20028;-77
2024/02/03 04:01:03;;;;;;;6.90;6.20;;;;;;;7.35;75.08;101768.81;3143291;23;20024;-77
2024/02/03 04:02:18;;;;;;;9.68;6.78;;;;;;;7.34;75.40;101770.53;3143356;23;20520;-77
2024/02/03 04:03:32;;;;;;;8.90;5.78;;;;;;;7.33;75.42;101766.22;3142934;22;20542;-77
2024/02/03 04:04:46;;;;;;;7.05;6.25;;;;;;;7.33;75.54;101768.81;3143261;22;20024;-77
2024/02/03 04:06:01;;;;;;;6.60;5.90;;;;;;;7.32;75.28;101768.75;3142206;23;20481;-77
2024/02/03 04:07:14;;;;;;;8.05;6.53;;;;;;;7.32;75.56;101764.44;3142891;22;20028;-77
2024/02/03 04:08:28;;;;;;;8.82;6.65;;;;;;;7.31;75.50;101767.00;3143739;23;20087;-77
2024/02/03 04:09:48;;;;;;;7.75;6.97;;;;;;;7.30;75.44;101768.72;3143387;23;20328;-77
2024/02/03 04:11:02;;;;;;;8.82;6.47;;;;;;;7.29;75.46;101772.16;3142851;22;20016;-77
2024/02/03 04:12:16;;;;;;;7.05;6.35;;;;;;;7.29;75.67;101774.75;3143032;23;20032;-77
2024/02/03 04:13:31;;;;;;;8.65;6.72;;;;;;;7.29;75.58;101771.28;3143067;23;20024;-77
2024/02/03 04:14:46;;;;;;;6.78;5.35;;;;;;;7.27;75.60;101766.03;3142474;22;20024;-77
2024/02/03 04:16:00;;;;;;;7.35;5.90;;;;;;;7.28;75.82;101777.31;3143192;23;20024;-77
2024/02/03 04:17:14;;;;;;;6.07;5.47;;;;;;;7.28;75.88;101774.69;3143010;23;20020;-77
2024/02/03 04:18:29;;;;;;;6.28;5.57;;;;;;;7.28;75.93;101782.50;3142754;23;20016;-77
2024/02/03 04:19:42;;;;;;;7.15;6.28;;;;;;;7.28;75.84;101783.41;3141973;22;20024;-77
2024/02/03 04:20:57;;;;;;;7.40;6.65;;;;;;;7.28;75.88;101780.81;3142955;23;20020;-77
2024/02/03 04:22:12;;;;;;;10.27;7.00;;;;;;;7.27;75.80;101784.22;3142622;23;20024;-77
2024/02/03 04:23:26;;;;;;;8.38;6.28;;;;;;;7.27;75.90;101784.22;3141555;22;20066;-77
2024/02/03 04:24:40;;;;;;;6.97;6.07;;;;;;;7.27;75.97;101776.44;3142746;22;20028;-77
2024/02/03 04:25:54;;;;;;;10.95;6.57;;;;;;;7.28;76.06;101786.00;3142535;23;20020;-76
2024/02/03 04:27:08;;;;;;;7.18;6.25;;;;;;;7.28;76.03;101775.59;3141975;22;20016;-76
2024/02/03 04:28:22;;;;;;;7.65;5.38;;;;;;;7.28;76.24;101782.50;3142417;23;20601;-76
2024/02/03 04:29:37;;;;;;;6.25;5.65;;;;;;;7.28;76.44;101788.59;3142165;23;20023;-76
2024/02/03 04:30:51;;;;;;;8.45;6.07;;;;;;;7.30;76.50;101784.28;3141914;22;20470;-76
2024/02/03 04:32:05;;;;;;;7.32;6.47;;;;;;;7.32;76.38;101779.13;3142480;23;20031;-76
2024/02/03 04:33:20;;;;;;;8.65;6.43;;;;;;;7.32;76.56;101786.94;3142176;23;20418;-76
2024/02/03 04:34:33;;;;;;;6.63;6.00;;;;;;;7.33;76.70;101784.38;3142451;22;20031;-76
2024/02/03 04:35:47;;;;;;;7.53;6.63;;;;;;;7.35;76.61;101776.59;3141915;22;20043;-76
2024/02/03 04:37:02;;;;;;;7.30;5.63;;;;;;;7.36;76.94;101784.44;3142361;23;20024;-76
2024/02/03 04:38:15;;;;;;;10.23;7.20;;;;;;;7.39;77.14;101788.84;3142459;23;20016;-76
2024/02/03 04:39:30;;;;;;;7.28;6.55;;;;;;;7.40;77.02;101786.25;3141409;22;20026;-76
2024/02/03 04:40:43;;;;;;;9.40;5.30;;;;;;;7.42;76.97;101794.09;3142247;23;20375;-76
2024/02/03 04:41:58;;;;;;;8.70;5.68;;;;;;;7.43;77.04;101791.53;3142404;23;20020;-76
2024/02/03 04:43:11;;;;;;;8.38;6.72;;;;;;;7.46;77.09;101795.03;3141485;22;20399;-76
2024/02/03 04:44:26;;;;;;;7.72;6.93;;;;;;;7.47;77.17;101791.59;3142464;23;20031;-76
2024/02/03 04:45:41;;;;;;;7.95;6.55;;;;;;;7.46;77.16;101782.94;3142241;22;20447;-76
2024/02/03 04:46:55;;;;;;;7.70;6.13;;;;;;;7.47;77.28;101776.03;3140984;22;20704;-76
2024/02/03 04:48:08;;;;;;;9.38;7.00;;;;;;;7.47;76.87;101778.63;3142226;23;20032;-76
2024/02/03 04:49:23;;;;;;;7.47;6.20;;;;;;;7.47;77.14;101783.81;3141808;23;20455;-76
2024/02/03 04:50:36;;;;;;;7.85;6.32;;;;;;;7.46;77.07;101774.25;3141678;22;20020;-76
2024/02/03 04:51:52;;;;;;;10.38;7.70;;;;;;;7.46;77.09;101777.75;3142116;23;20079;-76
2024/02/03 04:53:06;;;;;;;10.20;6.90;;;;;;;7.47;77.22;101786.41;3142239;23;20073;-76
2024/02/03 04:54:20;;;;;;;9.15;6.78;;;;;;;7.47;77.53;101773.41;3142248;23;20074;-76
2024/02/03 04:55:34;;;;;;;7.72;6.38;;;;;;;7.47;77.39;101776.03;3141141;22;20401;-76
2024/02/03 04:56:48;;;;;;;8.25;6.28;;;;;;;7.48;77.21;101782.94;3142098;23;20026;-76
2024/02/03 04:58:02;;;;;;;6.47;5.00;;;;;;;7.48;77.46;101777.75;3142194;23;20031;-76
2024/02/03 04:59:16;;;;;;;7.82;6.65;;;;;;;7.47;77.27;101781.22;3141137;22;20020;-76
2024/02/03 05:00:30;;;;;;;7.80;6.43;;;;;;;7.46;77.38;101777.75;3142366;23;20038;-76
2024/02/03 05:01:45;;;;;;;8.15;6.43;;;;;;;7.46;77.24;101775.16;3141993;23;20028;-76
2024/02/03 05:02:59;;;;;;;9.88;6.65;;;;;;;7.47;77.37;101770.81;3141000;22;20020;-76
2024/02/03 05:04:13;;;;;;;7.07;6.00;;;;;;;7.48;77.33;101775.16;3142176;23;20048;-76
2024/02/03 05:05:27;;;;;;;10.02;7.15;;;;;;;7.46;77.53;101776.84;3142038;22;20020;-76
2024/02/03 05:06:41;;;;;;;7.65;6.88;;;;;;;7.46;77.35;101776.84;3141552;22;20024;-76
2024/02/03 05:07:55;;;;;;;8.00;6.70;;;;;;;7.45;77.33;101775.97;3142126;23;20031;-76
2024/02/03 05:09:09;;;;;;;7.78;6.70;;;;;;;7.45;77.48;101768.19;3141898;23;20019;-76
2024/02/03 05:10:23;;;;;;;8.77;6.32;;;;;;;7.46;77.49;101782.03;3142296;23;20024;-76
2024/02/03 05:11:37;;;;;;;8.68;6.30;;;;;;;7.46;77.57;101774.25;3141868;22;20020;-76
2024/02/03 05:12:50;;;;;;;8.25;6.40;;;;;;;7.46;77.56;101780.34;3142095;23;20020;-76
2024/02/03 05:14:05;;;;;;;10.27;5.97;;;;;;;7.46;77.56;101780.34;3142444;23;20020;-76
2024/02/03 05:15:19;;;;;;;10.43;7.38;;;;;;;7.47;77.37;101774.28;3142752;22;20016;-76
2024/02/03 05:16:33;;;;;;;6.50;5.80;;;;;;;7.47;77.77;101781.22;3143248;23;20020;-76
2024/02/03 05:17:49;;;;;;;7.65;6.18;;;;;;;7.47;77.56;101770.81;3143251;23;20031;-76
2024/02/03 05:19:04;;;;;;;10.13;7.10;;;;;;;7.47;77.49;101778.63;3142107;22;20062;-76
2024/02/03 05:20:17;;;;;;;9.18;5.70;;;;;;;7.47;77.45;101778.63;3143049;23;20020;-76
2024/02/03 05:21:32;;;;;;;9.00;5.70;;;;;;;7.46;77.76;101779.44;3142474;23;20103;-76
2024/02/03 05:22:47;;;;;;;8.05;6.40;;;;;;;7.47;77.62;101786.41;3142251;22;20035;-76
2024/02/03 05:24:01;;;;;;;9.85;6.40;;;;;;;7.47;77.83;101782.09;3143324;23;20027;-76
2024/02/03 05:25:16;;;;;;;7.05;5.65;;;;;;;7.47;77.49;101783.81;3142986;22;20024;-76
2024/02/03 05:26:30;;;;;;;7.10;5.55;;;;;;;7.45;77.40;101773.38;3143325;23;20024;-76
2024/02/03 05:27:44;;;;;;;7.78;5.35;;;;;;;7.45;77.31;101777.69;3142297;22;20024;-76
2024/02/03 05:28:58;;;;;;;9.15;7.05;;;;;;;7.42;77.45;101776.78;3142902;23;20088;-76
2024/02/03 05:30:12;;;;;;;8.50;5.38;;;;;;;7.42;77.41;101781.09;3143227;23;20031;-76
2024/02/03 05:31:27;;;;;;;6.55;5.75;;;;;;;7.40;77.18;101775.88;3142363;22;20012;-76
2024/02/03 05:32:40;;;;;;;7.22;5.10;;;;;;;7.41;77.38;101776.75;3143338;23;20800;-76
2024/02/03 05:33:56;;;;;;;6.57;4.80;;;;;;;7.41;77.16;101781.97;3143243;23;20024;-76
2024/02/03 05:35:09;;;;;;;7.07;4.63;;;;;;;7.39;77.34;101784.50;3142561;22;20020;-76
2024/02/03 05:36:24;;;;;;;7.32;5.35;;;;;;;7.38;77.17;101785.38;3143035;23;20415;-76
2024/02/03 05:37:37;;;;;;;7.75;5.60;;;;;;;7.38;77.37;101785.38;3142487;23;20020;-76
2024/02/03 05:38:52;;;;;;;7.28;6.38;;;;;;;7.35;77.29;101782.66;3142108;22;20020;-76
2024/02/03 05:40:07;;;;;;;7.53;5.28;;;;;;;7.35;77.26;101792.19;3143199;23;20024;-76
2024/02/03 05:41:21;;;;;;;6.72;5.78;;;;;;;7.32;77.40;101777.41;3143115;23;20020;-76
2024/02/03 05:42:34;;;;;;;7.22;5.75;;;;;;;7.33;77.40;101786.06;3143221;23;20027;-76
2024/02/03 05:43:49;;;;;;;6.63;4.95;;;;;;;7.33;77.31;101779.19;3142554;22;20030;-76
2024/02/03 05:45:03;;;;;;;7.63;6.18;;;;;;;7.32;77.43;101777.41;3142938;22;20335;-76
2024/02/03 05:46:17;;;;;;;9.13;5.63;;;;;;;7.32;77.23;101774.81;3143278;23;20028;-76
2024/02/03 05:47:31;;;;;;;12.30;6.15;;;;;;;7.33;77.37;101781.78;3142235;22;20016;-76
2024/02/03 05:48:45;;;;;;;6.65;5.65;;;;;;;7.33;77.30;101779.19;3142842;23;20020;-76